sensor_id;sensor_type;location;lat;lon;timestamp;pressure;altitude;pressure_sealevel;temperature;humidity
80986;BME280;70451;51.226;6.412;2023-09-08T00:00:16;101099.34;;;17.27;90.02
80986;BME280;70451;51.226;6.412;2023-09-08T00:02:32;101096.47;;;17.18;90.33
80986;BME280;70451;51.226;6.412;2023-09-08T00:04:47;101090.34;;;17.18;90.31
80986;BME280;70451;51.226;6.412;2023-09-08T00:07:02;101094.13;;;17.14;90.63
80986;BME280;70451;51.226;6.412;2023-09-08T00:09:19;101090.53;;;17.15;90.50
80986;BME280;70451;51.226;6.412;2023-09-08T00:11:34;101092.34;;;17.14;90.60
80986;BME280;70451;51.226;6.412;2023-09-08T00:13:49;101089.94;;;17.11;90.70
80986;BME280;70451;51.226;6.412;2023-09-08T00:16:05;101094.22;;;17.12;90.47
80986;BME280;70451;51.226;6.412;2023-09-08T00:18:22;101098.69;;;17.12;90.74
80986;BME280;70451;51.226;6.412;2023-09-08T00:20:38;101093.28;;;17.13;91.02
80986;BME280;70451;51.226;6.412;2023-09-08T00:22:53;101085.38;;;17.13;90.85
80986;BME280;70451;51.226;6.412;2023-09-08T00:25:08;101090.16;;;17.08;90.64
80986;BME280;70451;51.226;6.412;2023-09-08T00:27:24;101089.63;;;17.03;90.49
80986;BME280;70451;51.226;6.412;2023-09-08T00:29:39;101081.72;;;17.03;90.75
80986;BME280;70451;51.226;6.412;2023-09-08T00:31:54;101076.66;;;17.00;90.89
80986;BME280;70451;51.226;6.412;2023-09-08T00:34:10;101089.75;;;17.02;91.33
80986;BME280;70451;51.226;6.412;2023-09-08T00:36:25;101084.81;;;16.97;91.02
80986;BME280;70451;51.226;6.412;2023-09-08T00:38:41;101082.25;;;17.08;90.90
80986;BME280;70451;51.226;6.412;2023-09-08T00:40:56;101076.00;;;17.09;91.05
80986;BME280;70451;51.226;6.412;2023-09-08T00:43:11;101076.13;;;17.08;90.87
80986;BME280;70451;51.226;6.412;2023-09-08T00:45:29;101083.69;;;17.12;90.66
80986;BME280;70451;51.226;6.412;2023-09-08T00:47:45;101073.47;;;17.08;90.38
80986;BME280;70451;51.226;6.412;2023-09-08T00:50:04;101081.91;;;17.13;90.50
80986;BME280;70451;51.226;6.412;2023-09-08T00:52:20;101075.38;;;17.18;90.56
80986;BME280;70451;51.226;6.412;2023-09-08T00:54:35;101080.63;;;17.18;90.21
80986;BME280;70451;51.226;6.412;2023-09-08T00:56:55;101077.47;;;17.13;90.00
80986;BME280;70451;51.226;6.412;2023-09-08T00:59:12;101085.38;;;17.13;90.25
80986;BME280;70451;51.226;6.412;2023-09-08T01:01:28;101072.72;;;17.18;89.93
80986;BME280;70451;51.226;6.412;2023-09-08T01:03:44;101076.91;;;17.21;90.15
80986;BME280;70451;51.226;6.412;2023-09-08T01:05:59;101086.00;;;17.17;89.66
80986;BME280;70451;51.226;6.412;2023-09-08T01:08:15;101074.00;;;17.13;90.41
80986;BME280;70451;51.226;6.412;2023-09-08T01:10:32;101075.16;;;17.09;90.25
80986;BME280;70451;51.226;6.412;2023-09-08T01:12:47;101075.72;;;17.01;90.22
80986;BME280;70451;51.226;6.412;2023-09-08T01:15:03;101077.50;;;17.01;90.31
80986;BME280;70451;51.226;6.412;2023-09-08T01:17:19;101078.69;;;16.97;90.54
80986;BME280;70451;51.226;6.412;2023-09-08T01:19:35;101081.44;;;16.95;90.78
80986;BME280;70451;51.226;6.412;2023-09-08T01:27:08;101077.66;;;16.87;91.09
80986;BME280;70451;51.226;6.412;2023-09-08T01:29:26;101078.38;;;16.89;91.22
80986;BME280;70451;51.226;6.412;2023-09-08T01:31:43;101080.19;;;16.88;91.13
80986;BME280;70451;51.226;6.412;2023-09-08T01:34:00;101082.06;;;16.86;91.32
80986;BME280;70451;51.226;6.412;2023-09-08T01:36:16;101075.44;;;16.80;91.41
80986;BME280;70451;51.226;6.412;2023-09-08T01:38:31;101071.56;;;16.73;91.69
80986;BME280;70451;51.226;6.412;2023-09-08T01:40:47;101071.56;;;16.73;91.88
80986;BME280;70451;51.226;6.412;2023-09-08T01:43:02;101065.53;;;16.71;91.72
80986;BME280;70451;51.226;6.412;2023-09-08T01:45:17;101069.13;;;16.70;91.72
80986;BME280;70451;51.226;6.412;2023-09-08T01:47:33;101065.97;;;16.65;92.04
80986;BME280;70451;51.226;6.412;2023-09-08T01:49:49;101061.75;;;16.63;92.11
80986;BME280;70451;51.226;6.412;2023-09-08T01:52:04;101065.22;;;16.63;92.33
80986;BME280;70451;51.226;6.412;2023-09-08T01:54:20;101066.38;;;16.59;92.18
80986;BME280;70451;51.226;6.412;2023-09-08T01:56:35;101062.28;;;16.55;92.43
80986;BME280;70451;51.226;6.412;2023-09-08T01:58:50;101063.09;;;16.56;92.81
80986;BME280;70451;51.226;6.412;2023-09-08T02:01:06;101055.44;;;16.53;92.40
80986;BME280;70451;51.226;6.412;2023-09-08T02:03:21;101061.97;;;16.47;92.58
80986;BME280;70451;51.226;6.412;2023-09-08T02:05:36;101063.75;;;16.47;92.75
80986;BME280;70451;51.226;6.412;2023-09-08T02:07:54;101069.53;;;16.52;92.62
80986;BME280;70451;51.226;6.412;2023-09-08T02:10:10;101060.91;;;16.50;92.56
80986;BME280;70451;51.226;6.412;2023-09-08T02:12:26;101063.53;;;16.50;92.69
80986;BME280;70451;51.226;6.412;2023-09-08T02:14:41;101053.00;;;16.50;92.52
80986;BME280;70451;51.226;6.412;2023-09-08T02:16:57;101057.75;;;16.44;92.21
80986;BME280;70451;51.226;6.412;2023-09-08T02:19:12;101051.03;;;16.40;92.70
80986;BME280;70451;51.226;6.412;2023-09-08T02:21:27;101063.22;;;16.41;92.90
80986;BME280;70451;51.226;6.412;2023-09-08T02:23:43;101055.75;;;16.35;92.96
80986;BME280;70451;51.226;6.412;2023-09-08T02:25:58;101060.16;;;16.35;92.66
80986;BME280;70451;51.226;6.412;2023-09-08T02:28:13;101059.53;;;16.31;93.03
80986;BME280;70451;51.226;6.412;2023-09-08T02:30:29;101055.22;;;16.30;93.16
80986;BME280;70451;51.226;6.412;2023-09-08T02:32:44;101054.78;;;16.36;93.17
80986;BME280;70451;51.226;6.412;2023-09-08T02:35:00;101055.63;;;16.37;92.95
80986;BME280;70451;51.226;6.412;2023-09-08T02:37:16;101057.00;;;16.30;92.92
80986;BME280;70451;51.226;6.412;2023-09-08T02:39:33;101061.53;;;16.28;92.73
80986;BME280;70451;51.226;6.412;2023-09-08T02:41:48;101057.25;;;16.27;92.89
80986;BME280;70451;51.226;6.412;2023-09-08T02:44:04;101055.66;;;16.24;93.31
80986;BME280;70451;51.226;6.412;2023-09-08T02:46:19;101061.94;;;16.22;92.60
80986;BME280;70451;51.226;6.412;2023-09-08T02:48:35;101063.44;;;16.26;93.75
80986;BME280;70451;51.226;6.412;2023-09-08T02:50:50;101065.94;;;16.27;93.48
80986;BME280;70451;51.226;6.412;2023-09-08T02:53:05;101065.84;;;16.29;93.30
80986;BME280;70451;51.226;6.412;2023-09-08T02:55:21;101072.81;;;16.30;93.32
80986;BME280;70451;51.226;6.412;2023-09-08T02:57:36;101071.97;;;16.29;93.25
80986;BME280;70451;51.226;6.412;2023-09-08T02:59:51;101069.13;;;16.32;93.33
80986;BME280;70451;51.226;6.412;2023-09-08T03:02:07;101072.06;;;16.28;92.92
80986;BME280;70451;51.226;6.412;2023-09-08T03:04:22;101071.13;;;16.29;92.87
80986;BME280;70451;51.226;6.412;2023-09-08T03:06:37;101069.31;;;16.29;92.88
80986;BME280;70451;51.226;6.412;2023-09-08T03:08:52;101062.69;;;16.24;93.06
80986;BME280;70451;51.226;6.412;2023-09-08T03:11:08;101056.41;;;16.26;93.33
80986;BME280;70451;51.226;6.412;2023-09-08T03:13:24;101067.97;;;16.24;93.00
80986;BME280;70451;51.226;6.412;2023-09-08T03:15:41;101063.44;;;16.26;93.06
80986;BME280;70451;51.226;6.412;2023-09-08T03:17:57;101057.00;;;16.17;92.80
80986;BME280;70451;51.226;6.412;2023-09-08T03:20:13;101055.41;;;16.15;93.03
80986;BME280;70451;51.226;6.412;2023-09-08T03:22:29;101051.63;;;16.06;93.13
80986;BME280;70451;51.226;6.412;2023-09-08T03:24:44;101052.59;;;16.05;93.40
80986;BME280;70451;51.226;6.412;2023-09-08T03:27:00;101051.19;;;15.99;93.18
80986;BME280;70451;51.226;6.412;2023-09-08T03:29:15;101052.97;;;15.99;93.80
80986;BME280;70451;51.226;6.412;2023-09-08T03:31:30;101056.66;;;15.96;93.92
80986;BME280;70451;51.226;6.412;2023-09-08T03:33:45;101044.78;;;16.03;94.19
80986;BME280;70451;51.226;6.412;2023-09-08T03:36:01;101041.94;;;16.06;93.96
80986;BME280;70451;51.226;6.412;2023-09-08T03:38:16;101046.25;;;16.08;93.62
80986;BME280;70451;51.226;6.412;2023-09-08T03:40:31;101039.72;;;16.00;93.42
80986;BME280;70451;51.226;6.412;2023-09-08T03:42:47;101040.66;;;15.99;93.71
80986;BME280;70451;51.226;6.412;2023-09-08T03:45:02;101044.03;;;15.89;93.53
80986;BME280;70451;51.226;6.412;2023-09-08T03:47:18;101048.84;;;15.82;93.72
80986;BME280;70451;51.226;6.412;2023-09-08T03:49:33;101053.19;;;15.83;94.02
80986;BME280;70451;51.226;6.412;2023-09-08T03:51:48;101036.03;;;15.90;94.05
80986;BME280;70451;51.226;6.412;2023-09-08T03:54:04;101046.13;;;15.84;93.91
80986;BME280;70451;51.226;6.412;2023-09-08T03:56:19;101045.91;;;15.74;93.83
80986;BME280;70451;51.226;6.412;2023-09-08T03:58:37;101047.50;;;15.77;94.23
80986;BME280;70451;51.226;6.412;2023-09-08T04:00:52;101042.94;;;15.79;94.14
80986;BME280;70451;51.226;6.412;2023-09-08T04:03:08;101054.72;;;15.73;93.68
80986;BME280;70451;51.226;6.412;2023-09-08T04:05:23;101045.03;;;15.74;94.09
80986;BME280;70451;51.226;6.412;2023-09-08T04:07:39;101047.88;;;15.71;93.66
80986;BME280;70451;51.226;6.412;2023-09-08T04:09:54;101052.50;;;15.67;93.47
80986;BME280;70451;51.226;6.412;2023-09-08T04:12:09;101049.97;;;15.65;94.00
80986;BME280;70451;51.226;6.412;2023-09-08T04:14:26;101048.94;;;15.68;94.10
80986;BME280;70451;51.226;6.412;2023-09-08T04:16:43;101058.38;;;15.71;94.29
80986;BME280;70451;51.226;6.412;2023-09-08T04:18:58;101053.97;;;15.71;94.11
80986;BME280;70451;51.226;6.412;2023-09-08T04:21:14;101050.81;;;15.66;94.16
80986;BME280;70451;51.226;6.412;2023-09-08T04:23:29;101052.59;;;15.65;93.97
80986;BME280;70451;51.226;6.412;2023-09-08T04:25:45;101052.59;;;15.65;94.44
80986;BME280;70451;51.226;6.412;2023-09-08T04:28:00;101055.31;;;15.64;94.15
80986;BME280;70451;51.226;6.412;2023-09-08T04:30:16;101054.81;;;15.72;94.15
80986;BME280;70451;51.226;6.412;2023-09-08T04:32:32;101053.69;;;15.76;94.25
80986;BME280;70451;51.226;6.412;2023-09-08T04:34:48;101057.41;;;15.59;93.19
80986;BME280;70451;51.226;6.412;2023-09-08T04:37:04;101054.16;;;15.55;94.03
80986;BME280;70451;51.226;6.412;2023-09-08T04:39:19;101057.63;;;15.56;94.51
80986;BME280;70451;51.226;6.412;2023-09-08T04:41:35;101059.13;;;15.60;94.69
80986;BME280;70451;51.226;6.412;2023-09-08T04:43:50;101051.03;;;15.63;94.45
80986;BME280;70451;51.226;6.412;2023-09-08T04:46:05;101059.97;;;15.60;94.25
80986;BME280;70451;51.226;6.412;2023-09-08T04:48:21;101055.22;;;15.65;94.58
80986;BME280;70451;51.226;6.412;2023-09-08T04:50:36;101059.88;;;15.62;94.21
80986;BME280;70451;51.226;6.412;2023-09-08T04:52:52;101053.94;;;15.58;94.18
80986;BME280;70451;51.226;6.412;2023-09-08T04:55:07;101063.72;;;15.56;94.45
80986;BME280;70451;51.226;6.412;2023-09-08T04:57:23;101055.00;;;15.56;94.66
80986;BME280;70451;51.226;6.412;2023-09-08T04:59:39;101053.31;;;15.55;94.23
80986;BME280;70451;51.226;6.412;2023-09-08T05:01:54;101053.41;;;15.53;94.27
80986;BME280;70451;51.226;6.412;2023-09-08T05:04:09;101058.19;;;15.47;94.37
80986;BME280;70451;51.226;6.412;2023-09-08T05:06:25;101057.84;;;15.39;94.23
80986;BME280;70451;51.226;6.412;2023-09-08T05:08:41;101057.53;;;15.43;94.60
80986;BME280;70451;51.226;6.412;2023-09-08T05:10:56;101059.97;;;15.46;94.56
80986;BME280;70451;51.226;6.412;2023-09-08T05:13:11;101055.56;;;15.47;94.32
80986;BME280;70451;51.226;6.412;2023-09-08T05:15:26;101057.72;;;15.54;94.76
80986;BME280;70451;51.226;6.412;2023-09-08T05:17:42;101053.09;;;15.58;94.80
80986;BME280;70451;51.226;6.412;2023-09-08T05:19:58;101061.31;;;15.53;94.71
80986;BME280;70451;51.226;6.412;2023-09-08T05:22:13;101067.84;;;15.60;94.65
80986;BME280;70451;51.226;6.412;2023-09-08T05:24:29;101066.91;;;15.61;94.46
80986;BME280;70451;51.226;6.412;2023-09-08T05:26:44;101065.13;;;15.62;94.88
80986;BME280;70451;51.226;6.412;2023-09-08T05:28:59;101068.78;;;15.59;94.89
80986;BME280;70451;51.226;6.412;2023-09-08T05:31:15;101074.56;;;15.64;94.94
80986;BME280;70451;51.226;6.412;2023-09-08T05:33:30;101070.50;;;15.73;94.78
80986;BME280;70451;51.226;6.412;2023-09-08T05:35:45;101062.31;;;15.78;94.60
80986;BME280;70451;51.226;6.412;2023-09-08T05:38:02;101064.66;;;15.82;94.23
80986;BME280;70451;51.226;6.412;2023-09-08T05:40:17;101065.06;;;15.89;94.24
80986;BME280;70451;51.226;6.412;2023-09-08T05:42:33;101065.59;;;15.94;94.26
80986;BME280;70451;51.226;6.412;2023-09-08T05:44:49;101072.56;;;15.95;94.15
80986;BME280;70451;51.226;6.412;2023-09-08T05:47:04;101065.00;;;16.03;94.09
80986;BME280;70451;51.226;6.412;2023-09-08T05:49:20;101067.88;;;16.13;93.79
80986;BME280;70451;51.226;6.412;2023-09-08T05:51:36;101079.44;;;16.23;93.52
80986;BME280;70451;51.226;6.412;2023-09-08T05:53:51;101072.47;;;16.34;93.24
80986;BME280;70451;51.226;6.412;2023-09-08T05:56:07;101072.50;;;16.47;93.08
80986;BME280;70451;51.226;6.412;2023-09-08T05:58:22;101069.97;;;16.58;92.65
80986;BME280;70451;51.226;6.412;2023-09-08T06:00:39;101066.72;;;16.67;92.24
80986;BME280;70451;51.226;6.412;2023-09-08T06:02:55;101072.72;;;16.82;91.96
80986;BME280;70451;51.226;6.412;2023-09-08T06:05:10;101078.38;;;16.89;91.84
80986;BME280;70451;51.226;6.412;2023-09-08T06:07:25;101077.31;;;17.04;91.52
80986;BME280;70451;51.226;6.412;2023-09-08T06:09:40;101076.31;;;17.17;91.14
80986;BME280;70451;51.226;6.412;2023-09-08T06:11:56;101076.38;;;17.29;90.56
80986;BME280;70451;51.226;6.412;2023-09-08T06:14:11;101075.59;;;17.39;90.63
80986;BME280;70451;51.226;6.412;2023-09-08T06:16:26;101073.75;;;17.52;90.59
80986;BME280;70451;51.226;6.412;2023-09-08T06:18:42;101070.00;;;17.68;90.25
80986;BME280;70451;51.226;6.412;2023-09-08T06:20:59;101067.50;;;17.77;89.39
80986;BME280;70451;51.226;6.412;2023-09-08T06:23:14;101067.69;;;17.87;89.01
80986;BME280;70451;51.226;6.412;2023-09-08T06:25:30;101062.41;;;17.98;88.92
80986;BME280;70451;51.226;6.412;2023-09-08T06:27:45;101061.63;;;18.09;88.73
80986;BME280;70451;51.226;6.412;2023-09-08T06:30:01;101064.28;;;18.20;88.60
80986;BME280;70451;51.226;6.412;2023-09-08T06:32:16;101061.78;;;18.29;87.77
80986;BME280;70451;51.226;6.412;2023-09-08T06:34:31;101073.19;;;18.41;87.74
80986;BME280;70451;51.226;6.412;2023-09-08T06:36:47;101068.16;;;18.49;87.70
80986;BME280;70451;51.226;6.412;2023-09-08T06:39:02;101068.22;;;18.60;87.05
80986;BME280;70451;51.226;6.412;2023-09-08T06:41:18;101070.72;;;18.73;86.68
80986;BME280;70451;51.226;6.412;2023-09-08T06:43:34;101071.66;;;18.83;86.44
80986;BME280;70451;51.226;6.412;2023-09-08T06:45:49;101066.88;;;18.88;86.26
80986;BME280;70451;51.226;6.412;2023-09-08T06:48:05;101074.31;;;18.94;85.99
80986;BME280;70451;51.226;6.412;2023-09-08T06:50:21;101073.44;;;19.05;85.82
80986;BME280;70451;51.226;6.412;2023-09-08T06:52:37;101075.13;;;19.17;85.39
80986;BME280;70451;51.226;6.412;2023-09-08T06:54:52;101065.75;;;19.24;85.20
80986;BME280;70451;51.226;6.412;2023-09-08T06:57:07;101079.31;;;19.31;84.76
80986;BME280;70451;51.226;6.412;2023-09-08T06:59:23;101077.72;;;19.39;84.35
80986;BME280;70451;51.226;6.412;2023-09-08T07:01:38;101078.94;;;19.46;83.98
80986;BME280;70451;51.226;6.412;2023-09-08T07:03:53;101073.16;;;19.52;82.73
80986;BME280;70451;51.226;6.412;2023-09-08T07:06:09;101075.28;;;19.59;82.69
80986;BME280;70451;51.226;6.412;2023-09-08T07:08:24;101074.53;;;19.68;82.04
80986;BME280;70451;51.226;6.412;2023-09-08T07:10:39;101078.69;;;19.81;83.30
80986;BME280;70451;51.226;6.412;2023-09-08T07:12:55;101077.06;;;19.90;82.84
80986;BME280;70451;51.226;6.412;2023-09-08T07:15:10;101077.53;;;19.95;81.05
80986;BME280;70451;51.226;6.412;2023-09-08T07:17:25;101083.47;;;20.08;81.51
80986;BME280;70451;51.226;6.412;2023-09-08T07:19:41;101070.69;;;20.13;81.13
80986;BME280;70451;51.226;6.412;2023-09-08T07:21:56;101079.06;;;20.18;79.87
80986;BME280;70451;51.226;6.412;2023-09-08T07:24:11;101081.66;;;20.29;79.62
80986;BME280;70451;51.226;6.412;2023-09-08T07:26:27;101080.63;;;20.42;80.45
80986;BME280;70451;51.226;6.412;2023-09-08T07:28:42;101079.13;;;20.49;79.77
80986;BME280;70451;51.226;6.412;2023-09-08T07:31:04;101080.03;;;20.59;77.98
80986;BME280;70451;51.226;6.412;2023-09-08T07:33:20;101086.50;;;20.66;78.01
80986;BME280;70451;51.226;6.412;2023-09-08T07:35:38;101087.78;;;20.71;78.23
80986;BME280;70451;51.226;6.412;2023-09-08T07:37:54;101074.94;;;20.77;76.07
80986;BME280;70451;51.226;6.412;2023-09-08T07:40:10;101087.28;;;20.87;77.38
80986;BME280;70451;51.226;6.412;2023-09-08T07:42:25;101078.91;;;20.92;76.57
80986;BME280;70451;51.226;6.412;2023-09-08T07:44:42;101089.94;;;20.97;76.52
80986;BME280;70451;51.226;6.412;2023-09-08T07:46:57;101088.00;;;20.99;76.20
80986;BME280;70451;51.226;6.412;2023-09-08T07:49:12;101089.16;;;21.06;76.42
80986;BME280;70451;51.226;6.412;2023-09-08T07:51:28;101091.38;;;21.10;76.73
80986;BME280;70451;51.226;6.412;2023-09-08T07:53:43;101083.78;;;21.17;75.97
80986;BME280;70451;51.226;6.412;2023-09-08T07:55:59;101082.94;;;21.17;73.94
80986;BME280;70451;51.226;6.412;2023-09-08T07:58:14;101089.38;;;21.24;75.07
80986;BME280;70451;51.226;6.412;2023-09-08T08:00:30;101086.84;;;21.32;75.41
80986;BME280;70451;51.226;6.412;2023-09-08T08:02:48;101081.69;;;21.40;75.37
80986;BME280;70451;51.226;6.412;2023-09-08T08:05:04;101081.56;;;21.41;74.65
80986;BME280;70451;51.226;6.412;2023-09-08T08:07:19;101077.97;;;21.52;74.23
80986;BME280;70451;51.226;6.412;2023-09-08T08:09:35;101082.97;;;21.55;72.15
80986;BME280;70451;51.226;6.412;2023-09-08T08:11:50;101075.16;;;21.63;71.87
80986;BME280;70451;51.226;6.412;2023-09-08T08:14:05;101074.03;;;21.75;72.57
80986;BME280;70451;51.226;6.412;2023-09-08T08:16:21;101076.97;;;21.82;72.15
80986;BME280;70451;51.226;6.412;2023-09-08T08:18:36;101074.88;;;21.85;71.23
80986;BME280;70451;51.226;6.412;2023-09-08T08:20:52;101073.34;;;21.93;72.30
80986;BME280;70451;51.226;6.412;2023-09-08T08:23:07;101072.50;;;21.92;71.63
80986;BME280;70451;51.226;6.412;2023-09-08T08:25:23;101074.47;;;22.00;70.76
80986;BME280;70451;51.226;6.412;2023-09-08T08:27:39;101073.19;;;22.13;70.49
80986;BME280;70451;51.226;6.412;2023-09-08T08:29:55;101066.06;;;22.14;69.04
80986;BME280;70451;51.226;6.412;2023-09-08T08:32:12;101069.13;;;22.19;68.76
80986;BME280;70451;51.226;6.412;2023-09-08T08:34:28;101075.94;;;22.31;69.07
80986;BME280;70451;51.226;6.412;2023-09-08T08:36:43;101076.75;;;22.41;70.15
80986;BME280;70451;51.226;6.412;2023-09-08T08:38:58;101080.41;;;22.40;70.58
80986;BME280;70451;51.226;6.412;2023-09-08T08:41:14;101079.69;;;22.38;70.50
80986;BME280;70451;51.226;6.412;2023-09-08T08:43:31;101080.13;;;22.43;70.63
80986;BME280;70451;51.226;6.412;2023-09-08T08:45:48;101078.56;;;22.50;71.55
80986;BME280;70451;51.226;6.412;2023-09-08T08:48:04;101066.50;;;22.56;69.72
80986;BME280;70451;51.226;6.412;2023-09-08T08:50:20;101069.56;;;22.61;68.87
80986;BME280;70451;51.226;6.412;2023-09-08T08:52:35;101078.06;;;22.74;69.10
80986;BME280;70451;51.226;6.412;2023-09-08T08:54:51;101075.00;;;22.79;68.25
80986;BME280;70451;51.226;6.412;2023-09-08T08:57:06;101072.72;;;22.84;69.10
80986;BME280;70451;51.226;6.412;2023-09-08T08:59:22;101077.31;;;22.91;68.63
80986;BME280;70451;51.226;6.412;2023-09-08T09:01:38;101072.59;;;23.03;68.93
80986;BME280;70451;51.226;6.412;2023-09-08T09:03:57;101080.66;;;23.21;68.22
80986;BME280;70451;51.226;6.412;2023-09-08T09:06:13;101076.59;;;23.17;67.21
80986;BME280;70451;51.226;6.412;2023-09-08T09:08:28;101069.44;;;23.17;68.26
80986;BME280;70451;51.226;6.412;2023-09-08T09:10:44;101067.63;;;23.18;67.45
80986;BME280;70451;51.226;6.412;2023-09-08T09:12:59;101078.22;;;23.27;68.39
80986;BME280;70451;51.226;6.412;2023-09-08T09:15:15;101086.16;;;23.37;67.41
80986;BME280;70451;51.226;6.412;2023-09-08T09:17:35;101073.50;;;23.39;67.75
80986;BME280;70451;51.226;6.412;2023-09-08T09:19:50;101078.22;;;23.45;65.91
80986;BME280;70451;51.226;6.412;2023-09-08T09:22:06;101084.97;;;23.49;66.86
80986;BME280;70451;51.226;6.412;2023-09-08T09:24:37;101082.53;;;23.56;67.34
80986;BME280;70451;51.226;6.412;2023-09-08T09:26:56;101076.97;;;23.49;66.26
80986;BME280;70451;51.226;6.412;2023-09-08T09:29:14;101081.72;;;23.73;66.13
80986;BME280;70451;51.226;6.412;2023-09-08T09:31:30;101081.47;;;23.84;66.14
80986;BME280;70451;51.226;6.412;2023-09-08T09:33:45;101079.63;;;23.67;66.64
80986;BME280;70451;51.226;6.412;2023-09-08T09:36:00;101076.41;;;23.81;65.41
80986;BME280;70451;51.226;6.412;2023-09-08T09:38:16;101081.53;;;23.92;65.43
80986;BME280;70451;51.226;6.412;2023-09-08T09:40:34;101076.78;;;24.04;65.65
80986;BME280;70451;51.226;6.412;2023-09-08T09:42:50;101082.81;;;24.06;67.86
80986;BME280;70451;51.226;6.412;2023-09-08T09:45:06;101080.28;;;24.04;67.82
80986;BME280;70451;51.226;6.412;2023-09-08T09:47:22;101082.94;;;24.04;66.64
80986;BME280;70451;51.226;6.412;2023-09-08T09:49:44;101081.81;;;24.07;66.51
80986;BME280;70451;51.226;6.412;2023-09-08T09:52:00;101081.53;;;24.18;68.55
80986;BME280;70451;51.226;6.412;2023-09-08T09:54:15;101075.00;;;24.30;66.86
80986;BME280;70451;51.226;6.412;2023-09-08T09:56:30;101075.38;;;24.35;67.72
80986;BME280;70451;51.226;6.412;2023-09-08T09:58:46;101078.69;;;24.37;67.75
80986;BME280;70451;51.226;6.412;2023-09-08T10:01:03;101071.78;;;24.52;65.15
80986;BME280;70451;51.226;6.412;2023-09-08T10:03:19;101074.66;;;24.59;65.21
80986;BME280;70451;51.226;6.412;2023-09-08T10:05:36;101070.81;;;24.53;64.85
80986;BME280;70451;51.226;6.412;2023-09-08T10:07:52;101073.81;;;24.50;65.48
80986;BME280;70451;51.226;6.412;2023-09-08T10:10:08;101073.94;;;24.49;64.53
80986;BME280;70451;51.226;6.412;2023-09-08T10:12:24;101063.16;;;24.58;64.24
80986;BME280;70451;51.226;6.412;2023-09-08T10:14:45;101080.38;;;24.64;63.35
80986;BME280;70451;51.226;6.412;2023-09-08T10:17:08;101072.56;;;24.71;62.70
80986;BME280;70451;51.226;6.412;2023-09-08T10:19:27;101064.09;;;24.83;63.08
80986;BME280;70451;51.226;6.412;2023-09-08T10:21:46;101059.75;;;24.82;63.66
80986;BME280;70451;51.226;6.412;2023-09-08T10:24:11;101066.09;;;24.81;64.81
80986;BME280;70451;51.226;6.412;2023-09-08T10:26:30;101063.09;;;25.18;61.48
80986;BME280;70451;51.226;6.412;2023-09-08T10:28:47;101068.25;;;25.12;63.57
80986;BME280;70451;51.226;6.412;2023-09-08T10:31:04;101066.53;;;25.03;63.77
80986;BME280;70451;51.226;6.412;2023-09-08T10:33:21;101061.72;;;25.06;63.35
80986;BME280;70451;51.226;6.412;2023-09-08T10:35:39;101063.88;;;25.03;61.96
80986;BME280;70451;51.226;6.412;2023-09-08T10:40:41;101063.94;;;25.27;63.68
80986;BME280;70451;51.226;6.412;2023-09-08T10:43:07;101058.78;;;25.33;60.98
80986;BME280;70451;51.226;6.412;2023-09-08T10:45:23;101061.50;;;25.58;59.68
80986;BME280;70451;51.226;6.412;2023-09-08T10:47:54;101062.13;;;25.44;61.54
80986;BME280;70451;51.226;6.412;2023-09-08T10:50:25;101063.31;;;25.41;62.35
80986;BME280;70451;51.226;6.412;2023-09-08T10:52:41;101060.47;;;25.43;63.76
80986;BME280;70451;51.226;6.412;2023-09-08T10:54:57;101063.63;;;25.46;63.79
80986;BME280;70451;51.226;6.412;2023-09-08T10:57:14;101060.66;;;25.49;62.31
80986;BME280;70451;51.226;6.412;2023-09-08T10:59:34;101065.38;;;25.63;63.37
80986;BME280;70451;51.226;6.412;2023-09-08T11:01:50;101063.03;;;25.60;61.82
80986;BME280;70451;51.226;6.412;2023-09-08T11:04:06;101067.22;;;25.71;64.41
80986;BME280;70451;51.226;6.412;2023-09-08T11:06:25;101061.88;;;25.71;64.23
80986;BME280;70451;51.226;6.412;2023-09-08T11:08:45;101052.16;;;26.10;57.62
80986;BME280;70451;51.226;6.412;2023-09-08T11:11:01;101059.00;;;26.29;58.79
80986;BME280;70451;51.226;6.412;2023-09-08T11:13:17;101056.81;;;26.33;60.01
80986;BME280;70451;51.226;6.412;2023-09-08T11:15:33;101044.81;;;26.12;62.72
80986;BME280;70451;51.226;6.412;2023-09-08T11:17:48;101043.13;;;26.20;62.35
80986;BME280;70451;51.226;6.412;2023-09-08T11:20:06;101051.81;;;26.05;62.01
80986;BME280;70451;51.226;6.412;2023-09-08T11:22:25;101046.81;;;26.10;59.80
80986;BME280;70451;51.226;6.412;2023-09-08T11:24:44;101045.97;;;26.02;60.83
80986;BME280;70451;51.226;6.412;2023-09-08T11:26:59;101044.66;;;26.06;60.45
80986;BME280;70451;51.226;6.412;2023-09-08T11:29:15;101035.44;;;26.08;60.74
80986;BME280;70451;51.226;6.412;2023-09-08T11:31:31;101050.16;;;26.04;59.59
80986;BME280;70451;51.226;6.412;2023-09-08T11:33:48;101043.81;;;26.05;60.36
80986;BME280;70451;51.226;6.412;2023-09-08T11:36:11;101038.94;;;26.17;58.18
80986;BME280;70451;51.226;6.412;2023-09-08T11:38:27;101039.94;;;26.16;60.13
80986;BME280;70451;51.226;6.412;2023-09-08T11:40:43;101039.13;;;26.07;58.87
80986;BME280;70451;51.226;6.412;2023-09-08T11:42:58;101043.28;;;26.18;59.95
80986;BME280;70451;51.226;6.412;2023-09-08T11:45:15;101034.44;;;26.26;59.58
80986;BME280;70451;51.226;6.412;2023-09-08T11:47:32;101036.09;;;26.27;57.88
80986;BME280;70451;51.226;6.412;2023-09-08T11:49:48;101037.25;;;26.16;60.29
80986;BME280;70451;51.226;6.412;2023-09-08T11:52:03;101034.25;;;26.11;60.16
80986;BME280;70451;51.226;6.412;2023-09-08T11:54:19;101036.41;;;26.16;57.62
80986;BME280;70451;51.226;6.412;2023-09-08T11:56:34;101037.47;;;26.06;62.16
80986;BME280;70451;51.226;6.412;2023-09-08T11:58:50;101029.22;;;26.16;58.36